Time;durP1;ratioP1;P1;durP2;ratioP2;P2;SDS_P1;SDS_P2;PMS_P1;PMS_P2;Temp;Humidity;BMP_temperature;BMP_pressure;BME280_temperature;BME280_humidity;BME280_pressure;Samples;Min_cycle;Max_cycle;Signal;HPM_P1;HPM_P2
2023/03/09 00:02:13;;;;;;;25.90;14.07;;;-0.30;99.90;;;;;;5012762;28;20200;-82
2023/03/09 00:04:40;;;;;;;28.70;12.93;;;-0.30;99.90;;;;;;5013890;28;20204;-81
2023/03/09 00:07:07;;;;;;;27.63;12.97;;;-0.30;99.90;;;;;;5012061;28;20228;-82
2023/03/09 00:09:34;;;;;;;30.20;14.87;;;-0.30;99.90;;;;;;5012836;28;20227;-82
2023/03/09 00:12:02;;;;;;;26.83;12.23;;;-0.40;99.90;;;;;;5012429;28;20243;-82
2023/03/09 00:14:29;;;;;;;25.70;11.87;;;-0.30;99.90;;;;;;5017882;28;20212;-81
2023/03/09 00:16:56;;;;;;;25.20;12.97;;;-0.40;99.90;;;;;;5011730;28;20200;-82
2023/03/09 00:19:26;;;;;;;24.60;13.03;;;-0.40;99.90;;;;;;5009943;28;20708;-82
2023/03/09 00:21:54;;;;;;;26.77;14.33;;;-0.40;99.90;;;;;;5012378;28;20295;-82
2023/03/09 00:24:26;;;;;;;26.07;13.00;;;-0.40;99.90;;;;;;5012553;28;20200;-81
2023/03/09 00:26:54;;;;;;;26.63;13.70;;;-0.40;99.90;;;;;;5012667;28;20653;-81
2023/03/09 00:29:23;;;;;;;24.77;10.30;;;-0.50;99.90;;;;;;5012124;28;20243;-82
2023/03/09 00:31:49;;;;;;;24.20;10.37;;;-0.50;99.90;;;;;;5012408;28;20227;-81
2023/03/09 00:34:17;;;;;;;25.20;12.07;;;-0.50;99.90;;;;;;5011616;28;20703;-82
2023/03/09 00:36:44;;;;;;;23.33;12.10;;;-0.50;99.90;;;;;;5012092;28;20207;-82
2023/03/09 00:39:12;;;;;;;20.90;9.13;;;-0.50;99.90;;;;;;5010640;28;20220;-81
2023/03/09 00:41:39;;;;;;;22.83;11.40;;;-0.50;99.90;;;;;;5019908;28;20203;-81
2023/03/09 00:44:06;;;;;;;22.67;12.23;;;-0.50;99.90;;;;;;5011961;28;20208;-80
2023/03/09 00:46:35;;;;;;;21.20;8.80;;;-0.50;99.90;;;;;;5010234;28;20197;-80
2023/03/09 00:49:05;;;;;;;22.80;11.00;;;-0.60;99.90;;;;;;5010950;28;20224;-80
2023/03/09 00:51:33;;;;;;;20.90;8.90;;;-0.50;99.90;;;;;;5012012;28;20215;-81
2023/03/09 00:54:00;;;;;;;21.73;9.30;;;-0.60;99.90;;;;;;5010534;28;20211;-81
2023/03/09 00:56:29;;;;;;;24.53;10.33;;;-0.60;99.90;;;;;;5012238;28;20203;-79
2023/03/09 00:58:57;;;;;;;23.10;11.07;;;-0.60;99.90;;;;;;5015279;28;20232;-80
2023/03/09 01:01:24;;;;;;;24.87;13.13;;;-0.50;99.90;;;;;;5016206;28;20207;-80
2023/03/09 01:03:52;;;;;;;23.97;10.80;;;-0.50;99.90;;;;;;5016030;28;20211;-81
2023/03/09 01:06:20;;;;;;;24.63;11.80;;;-0.60;99.90;;;;;;5016138;28;20201;-80
2023/03/09 01:08:47;;;;;;;23.50;11.83;;;-0.60;99.90;;;;;;5012567;28;20315;-81
2023/03/09 01:11:16;;;;;;;24.87;10.37;;;-0.50;99.90;;;;;;5008346;28;20228;-80
2023/03/09 01:13:43;;;;;;;25.93;12.03;;;-0.60;99.90;;;;;;5016255;28;20573;-80
2023/03/09 01:16:10;;;;;;;23.83;12.20;;;-0.60;99.90;;;;;;5014180;28;20682;-79
2023/03/09 01:18:37;;;;;;;25.30;12.97;;;-0.60;99.90;;;;;;5014163;28;20224;-80
2023/03/09 01:21:06;;;;;;;26.20;13.23;;;-0.60;99.90;;;;;;5008930;28;20571;-80
2023/03/09 01:23:33;;;;;;;22.73;10.80;;;-0.60;99.90;;;;;;5015721;28;20560;-80
2023/03/09 01:26:00;;;;;;;22.10;9.40;;;-0.60;99.90;;;;;;5014198;28;20567;-80
2023/03/09 01:28:26;;;;;;;23.30;10.03;;;-0.60;99.90;;;;;;5014752;28;20616;-80
2023/03/09 01:30:53;;;;;;;23.93;9.67;;;-0.60;99.90;;;;;;5015464;28;20214;-81
2023/03/09 01:33:20;;;;;;;20.37;9.30;;;-0.60;99.90;;;;;;5015256;28;20215;-80
2023/03/09 01:35:47;;;;;;;25.90;13.73;;;-0.60;99.90;;;;;;5014921;28;20683;-81
2023/03/09 01:38:15;;;;;;;21.70;10.30;;;-0.60;99.90;;;;;;5011479;28;20640;-81
2023/03/09 01:40:46;;;;;;;23.97;11.67;;;-0.60;99.90;;;;;;5010547;28;20283;-80
2023/03/09 01:43:28;;;;;;;19.27;8.13;;;-0.60;99.90;;;;;;5007747;28;20267;-80
2023/03/09 01:46:37;;;;;;;24.47;11.13;;;-0.60;99.90;;;;;;5009649;28;20204;-81
2023/03/09 01:49:11;;;;;;;21.57;10.40;;;-0.60;99.90;;;;;;5011117;28;20231;-80
2023/03/09 01:51:42;;;;;;;25.03;11.53;;;-0.60;99.90;;;;;;5031803;28;20730;-80
2023/03/09 01:54:14;;;;;;;23.93;12.30;;;-0.60;99.90;;;;;;5016455;28;20209;-80
2023/03/09 01:56:44;;;;;;;27.17;12.77;;;-0.60;99.90;;;;;;5015371;28;20676;-80
2023/03/09 01:59:12;;;;;;;21.80;9.90;;;-0.60;99.90;;;;;;5014224;28;20320;-80
2023/03/09 02:01:41;;;;;;;27.23;13.23;;;-0.60;99.90;;;;;;5014659;28;20200;-81
2023/03/09 02:04:15;;;;;;;22.73;10.90;;;-0.60;99.90;;;;;;5012639;28;20215;-81
2023/03/09 02:06:42;;;;;;;25.30;11.47;;;-0.60;99.90;;;;;;5013542;28;20661;-81
2023/03/09 02:09:20;;;;;;;29.07;13.37;;;-0.60;99.90;;;;;;5013227;28;20227;-80
2023/03/09 02:11:47;;;;;;;26.73;12.27;;;-0.60;99.90;;;;;;5006240;28;20223;-80
2023/03/09 02:14:15;;;;;;;26.10;10.50;;;-0.60;99.90;;;;;;5014875;28;20197;-81
2023/03/09 02:16:41;;;;;;;27.87;13.13;;;-0.60;99.90;;;;;;5014840;28;20205;-80
2023/03/09 02:19:16;;;;;;;21.07;9.67;;;-0.60;99.90;;;;;;5014887;28;20242;-80
2023/03/09 02:21:47;;;;;;;28.10;12.93;;;-0.60;99.90;;;;;;5014668;28;20225;-80
2023/03/09 02:24:22;;;;;;;27.50;13.27;;;-0.60;99.90;;;;;;5015786;28;20736;-81
2023/03/09 02:26:54;;;;;;;25.63;12.53;;;-0.60;99.90;;;;;;5015036;28;20204;-81
2023/03/09 02:29:22;;;;;;;27.17;11.47;;;-0.50;99.90;;;;;;5014414;28;20579;-80
2023/03/09 02:31:49;;;;;;;27.20;10.77;;;-0.50;99.90;;;;;;5014532;28;20234;-80
2023/03/09 02:34:16;;;;;;;25.83;12.47;;;-0.50;99.90;;;;;;5014421;28;20578;-80
2023/03/09 02:36:42;;;;;;;28.73;14.23;;;-0.50;99.90;;;;;;5014665;28;20216;-80
2023/03/09 02:39:18;;;;;;;27.53;13.90;;;-0.50;99.90;;;;;;5003364;28;20224;-79
2023/03/09 02:41:45;;;;;;;27.33;13.43;;;-0.60;99.90;;;;;;4995412;28;20205;-80
2023/03/09 02:44:13;;;;;;;26.33;11.27;;;-0.50;99.90;;;;;;4995113;28;20204;-80
2023/03/09 02:46:41;;;;;;;28.63;14.20;;;-0.60;99.90;;;;;;4995214;28;20232;-80
2023/03/09 02:49:08;;;;;;;27.43;12.17;;;-0.60;99.90;;;;;;4994526;28;20237;-80
2023/03/09 02:51:35;;;;;;;27.13;13.43;;;-0.60;99.90;;;;;;5003100;28;20553;-80
2023/03/09 02:54:02;;;;;;;29.97;14.70;;;-0.70;99.90;;;;;;5014031;28;20210;-81
2023/03/09 02:56:28;;;;;;;26.53;12.90;;;-0.60;99.90;;;;;;5014104;28;20641;-80
2023/03/09 02:58:55;;;;;;;20.87;8.77;;;-0.70;99.90;;;;;;5013680;28;20247;-80
2023/03/09 03:01:22;;;;;;;32.13;14.60;;;-0.70;99.90;;;;;;5013876;28;20634;-80
2023/03/09 03:03:50;;;;;;;26.27;13.43;;;-0.70;99.90;;;;;;5013685;28;20675;-80
2023/03/09 03:06:17;;;;;;;20.67;9.00;;;-0.70;99.90;;;;;;5014060;28;20234;-80
2023/03/09 03:08:43;;;;;;;28.67;12.07;;;-0.80;99.90;;;;;;5013683;28;20584;-80
2023/03/09 03:11:10;;;;;;;24.13;10.80;;;-0.80;99.90;;;;;;5014185;28;20265;-80
2023/03/09 03:13:37;;;;;;;25.20;11.43;;;-0.80;99.90;;;;;;5013941;28;20231;-80
2023/03/09 03:16:04;;;;;;;24.10;11.47;;;-0.80;99.90;;;;;;5013257;28;20200;-80
2023/03/09 03:18:31;;;;;;;25.30;12.53;;;-0.80;99.90;;;;;;5013603;28;20216;-81
2023/03/09 03:21:00;;;;;;;24.60;12.73;;;-0.90;99.90;;;;;;5013106;28;20211;-80
2023/03/09 03:23:27;;;;;;;26.03;12.87;;;-0.90;99.90;;;;;;5014355;28;20560;-80
2023/03/09 03:25:53;;;;;;;23.23;10.20;;;-0.90;99.90;;;;;;5014354;28;20227;-80
2023/03/09 03:28:20;;;;;;;23.00;10.57;;;-0.90;99.90;;;;;;4996350;28;20233;-81
2023/03/09 03:30:50;;;;;;;24.87;12.73;;;-0.90;99.90;;;;;;4994617;28;20217;-80
2023/03/09 03:33:17;;;;;;;25.50;12.10;;;-0.90;99.90;;;;;;4994279;28;20256;-81
2023/03/09 03:35:44;;;;;;;23.43;11.03;;;-0.90;99.90;;;;;;5000721;28;20581;-81
2023/03/09 03:38:12;;;;;;;23.13;11.90;;;-1.00;99.90;;;;;;5013600;28;20223;-80
2023/03/09 03:40:39;;;;;;;25.10;11.67;;;-0.90;99.90;;;;;;5013519;28;20200;-80
2023/03/09 03:43:06;;;;;;;24.20;11.90;;;-1.00;99.90;;;;;;5013294;28;20200;-81
2023/03/09 03:45:33;;;;;;;22.73;11.00;;;-1.00;99.90;;;;;;5013867;28;20201;-80
2023/03/09 03:48:00;;;;;;;24.17;11.07;;;-1.00;99.90;;;;;;5013436;28;20639;-81
2023/03/09 03:50:27;;;;;;;23.87;12.50;;;-1.00;99.90;;;;;;5013769;28;20208;-80
2023/03/09 03:52:54;;;;;;;22.40;10.97;;;-1.00;99.90;;;;;;5013580;28;20220;-80
2023/03/09 03:55:22;;;;;;;23.77;11.80;;;-1.00;99.90;;;;;;5012973;28;20196;-81
2023/03/09 03:57:49;;;;;;;24.47;12.07;;;-0.90;99.90;;;;;;5012904;28;20244;-81
2023/03/09 04:00:19;;;;;;;22.20;9.27;;;-0.90;99.90;;;;;;5012658;28;20661;-80
2023/03/09 04:02:46;;;;;;;23.47;10.93;;;-1.00;99.90;;;;;;5019203;28;20211;-80
2023/03/09 04:05:12;;;;;;;23.00;10.87;;;-0.90;99.90;;;;;;5031523;28;20207;-80
2023/03/09 04:07:39;;;;;;;22.33;10.90;;;-1.00;99.90;;;;;;5022480;28;20232;-80
2023/03/09 04:10:07;;;;;;;20.93;9.57;;;-0.90;99.90;;;;;;5030309;28;20204;-79
2023/03/09 04:12:36;;;;;;;23.70;10.00;;;-0.90;99.90;;;;;;5014162;28;20247;-79
2023/03/09 04:15:03;;;;;;;23.13;11.07;;;-0.90;99.90;;;;;;5014409;28;20208;-80
2023/03/09 04:17:30;;;;;;;25.10;10.90;;;-0.90;99.90;;;;;;5014295;28;20649;-80
2023/03/09 04:19:56;;;;;;;23.73;10.83;;;-0.90;99.90;;;;;;5015115;28;20219;-82
2023/03/09 04:22:24;;;;;;;23.53;11.47;;;-0.90;99.90;;;;;;5016678;28;20688;-80
2023/03/09 04:24:51;;;;;;;26.10;12.77;;;-0.90;99.90;;;;;;5012554;28;20214;-80
2023/03/09 04:27:18;;;;;;;21.87;9.43;;;-0.80;99.90;;;;;;5012546;28;20370;-81
2023/03/09 04:29:46;;;;;;;26.27;12.27;;;-0.80;99.90;;;;;;5011746;28;20216;-79
2023/03/09 04:32:13;;;;;;;24.33;9.83;;;-0.80;99.90;;;;;;5017165;28;20230;-80
2023/03/09 04:34:40;;;;;;;24.70;12.40;;;-0.70;99.90;;;;;;5016530;28;20656;-79
2023/03/09 04:37:07;;;;;;;28.27;14.10;;;-0.80;99.90;;;;;;5019968;28;20544;-80
2023/03/09 04:39:33;;;;;;;25.20;11.90;;;-0.80;99.90;;;;;;5022162;28;20719;-80
2023/03/09 04:42:00;;;;;;;26.07;11.90;;;-0.80;99.90;;;;;;5016743;28;20581;-80
2023/03/09 04:44:27;;;;;;;29.10;14.17;;;-0.80;99.90;;;;;;5016607;28;20297;-80
2023/03/09 04:46:55;;;;;;;28.27;12.13;;;-0.80;99.90;;;;;;5015304;28;20200;-79
2023/03/09 04:49:22;;;;;;;28.43;13.33;;;-0.80;99.90;;;;;;5015525;28;20228;-79
2023/03/09 04:51:49;;;;;;;28.77;13.57;;;-0.80;99.90;;;;;;5016644;28;20200;-79
2023/03/09 04:54:15;;;;;;;29.33;14.07;;;-0.80;99.90;;;;;;5014978;28;20228;-79
2023/03/09 04:56:42;;;;;;;31.60;14.70;;;-0.80;99.90;;;;;;5015032;28;20204;-79
2023/03/09 04:59:09;;;;;;;30.23;14.87;;;-0.80;99.90;;;;;;5015367;28;20236;-80
2023/03/09 05:01:36;;;;;;;30.50;12.77;;;-0.80;99.90;;;;;;5015705;28;20565;-80
2023/03/09 05:04:04;;;;;;;29.73;12.47;;;-0.80;99.90;;;;;;5016414;28;20695;-79
2023/03/09 05:06:31;;;;;;;32.10;14.27;;;-0.80;99.90;;;;;;5014382;28;20208;-79
2023/03/09 05:08:59;;;;;;;34.73;16.83;;;-0.80;99.90;;;;;;5014821;28;20228;-79
2023/03/09 05:11:26;;;;;;;35.37;14.07;;;-0.80;99.90;;;;;;5009394;28;20208;-80
2023/03/09 05:13:52;;;;;;;35.97;14.73;;;-0.80;99.90;;;;;;5016444;28;20220;-79
2023/03/09 05:16:19;;;;;;;34.20;16.37;;;-0.80;99.90;;;;;;5021495;28;20212;-79
2023/03/09 05:18:49;;;;;;;36.07;15.30;;;-0.80;99.90;;;;;;5014621;28;20231;-80
2023/03/09 05:21:18;;;;;;;35.13;17.90;;;-0.90;99.90;;;;;;5015935;28;20208;-80
2023/03/09 05:23:45;;;;;;;37.43;17.50;;;-0.80;99.90;;;;;;5007888;28;20208;-79
2023/03/09 05:26:12;;;;;;;34.47;13.90;;;-0.90;99.90;;;;;;5013885;28;20486;-79
2023/03/09 05:28:40;;;;;;;36.63;17.40;;;-0.90;99.90;;;;;;5022663;28;20224;-79
2023/03/09 05:31:09;;;;;;;37.17;15.47;;;-0.90;99.90;;;;;;5015633;28;20212;-79
2023/03/09 05:33:36;;;;;;;37.33;16.40;;;-0.90;99.90;;;;;;5018227;28;20234;-79
2023/03/09 05:36:02;;;;;;;37.10;18.27;;;-0.90;99.90;;;;;;5020090;28;20209;-79
2023/03/09 05:38:31;;;;;;;38.57;18.13;;;-0.90;99.90;;;;;;5006490;28;20221;-79
2023/03/09 05:40:57;;;;;;;38.70;18.30;;;-0.90;99.90;;;;;;5008013;28;20197;-79
2023/03/09 05:43:24;;;;;;;33.73;16.00;;;-0.90;99.90;;;;;;5015882;28;20302;-80
2023/03/09 05:45:57;;;;;;;36.10;15.00;;;-0.90;99.90;;;;;;4997108;28;20193;-79
2023/03/09 05:48:24;;;;;;;35.20;16.00;;;-0.90;99.90;;;;;;5000157;28;20704;-79
2023/03/09 05:50:50;;;;;;;37.50;15.33;;;-0.90;99.90;;;;;;5033798;28;20195;-80
2023/03/09 05:53:17;;;;;;;35.90;15.10;;;-0.90;99.90;;;;;;5029561;28;20224;-79
2023/03/09 05:55:50;;;;;;;38.33;18.67;;;-0.90;99.90;;;;;;5014897;28;20208;-79
2023/03/09 05:58:17;;;;;;;39.90;18.00;;;-0.90;99.90;;;;;;5015613;28;20234;-79
2023/03/09 06:00:44;;;;;;;34.83;15.47;;;-0.90;99.90;;;;;;5014911;28;20236;-80
2023/03/09 06:03:11;;;;;;;31.97;13.90;;;-0.90;99.90;;;;;;5014607;28;20242;-80
2023/03/09 06:05:38;;;;;;;35.43;17.50;;;-0.90;99.90;;;;;;5014547;28;20570;-80
2023/03/09 06:08:05;;;;;;;34.70;15.00;;;-0.90;99.90;;;;;;5015768;28;20224;-79
2023/03/09 06:10:31;;;;;;;32.97;16.37;;;-0.80;99.90;;;;;;5015310;28;20219;-79
2023/03/09 06:13:00;;;;;;;31.93;15.77;;;-0.80;99.90;;;;;;5015903;28;20519;-80
2023/03/09 06:15:26;;;;;;;34.13;17.57;;;-0.80;99.90;;;;;;5014350;28;20212;-79
2023/03/09 06:17:53;;;;;;;33.13;14.17;;;-0.80;99.90;;;;;;5015444;28;20602;-79
2023/03/09 06:20:20;;;;;;;32.87;14.13;;;-0.80;99.90;;;;;;5013078;28;20568;-79
2023/03/09 06:22:47;;;;;;;29.90;12.87;;;-0.80;99.90;;;;;;5014629;28;20215;-79
2023/03/09 06:25:14;;;;;;;34.43;14.03;;;-0.80;99.90;;;;;;5016030;28;20200;-79
2023/03/09 06:27:41;;;;;;;32.43;15.70;;;-0.80;99.90;;;;;;5016319;28;20704;-80
2023/03/09 06:30:10;;;;;;;32.40;16.03;;;-0.80;99.90;;;;;;5015389;28;20244;-80
2023/03/09 06:32:37;;;;;;;32.90;16.00;;;-0.70;99.90;;;;;;5015288;28;20693;-79
2023/03/09 06:35:05;;;;;;;32.73;15.57;;;-0.80;99.90;;;;;;5015853;28;20211;-79
2023/03/09 06:37:32;;;;;;;33.33;14.67;;;-0.80;99.90;;;;;;5017032;28;20204;-79
2023/03/09 06:39:58;;;;;;;31.53;16.40;;;-0.80;99.90;;;;;;5015821;28;20212;-79
2023/03/09 06:42:25;;;;;;;33.13;14.90;;;-0.70;99.90;;;;;;5015797;28;20691;-79
2023/03/09 06:44:52;;;;;;;31.67;15.80;;;-0.70;99.90;;;;;;5016142;28;20211;-79
2023/03/09 06:47:20;;;;;;;33.43;15.87;;;-0.70;99.90;;;;;;5015234;28;20205;-80
2023/03/09 06:49:47;;;;;;;31.43;15.73;;;-0.70;99.90;;;;;;5015067;28;20210;-79
2023/03/09 06:52:13;;;;;;;32.53;15.50;;;-0.70;99.90;;;;;;5015254;28;20683;-79
2023/03/09 06:54:40;;;;;;;28.67;12.93;;;-0.70;99.90;;;;;;5015175;28;20228;-79
2023/03/09 06:57:08;;;;;;;32.63;13.40;;;-0.60;99.90;;;;;;5016153;28;20208;-80
2023/03/09 06:59:35;;;;;;;31.53;14.63;;;-0.70;99.90;;;;;;5015579;28;20224;-79
2023/03/09 07:02:01;;;;;;;29.93;16.70;;;-0.60;99.90;;;;;;5016855;28;20222;-79
2023/03/09 07:04:29;;;;;;;32.67;16.97;;;-0.60;99.90;;;;;;5016159;28;20204;-79
2023/03/09 07:06:56;;;;;;;30.57;13.70;;;-0.50;99.90;;;;;;5015646;28;20205;-79
2023/03/09 07:09:23;;;;;;;32.03;14.37;;;-0.50;99.90;;;;;;5015527;28;20641;-79
2023/03/09 07:11:50;;;;;;;28.93;12.83;;;-0.50;99.90;;;;;;5015603;28;20677;-79
2023/03/09 07:14:16;;;;;;;32.60;14.13;;;-0.40;99.90;;;;;;5015828;28;20595;-79
2023/03/09 07:16:43;;;;;;;33.97;14.83;;;-0.40;99.90;;;;;;5015396;28;20226;-79
2023/03/09 07:19:10;;;;;;;30.77;13.53;;;-0.40;99.90;;;;;;5014946;28;20258;-79
2023/03/09 07:21:38;;;;;;;30.53;13.97;;;-0.40;99.90;;;;;;5015267;28;20211;-79
2023/03/09 07:24:06;;;;;;;27.90;13.83;;;-0.40;99.90;;;;;;5014587;28;20200;-79
2023/03/09 07:26:32;;;;;;;30.23;14.63;;;-0.40;99.90;;;;;;5014424;28;20215;-79
2023/03/09 07:29:00;;;;;;;28.90;13.50;;;-0.40;99.90;;;;;;5014791;28;20240;-79
2023/03/09 07:31:28;;;;;;;28.27;13.17;;;-0.30;99.90;;;;;;5014743;28;20326;-79
2023/03/09 07:33:55;;;;;;;29.93;13.83;;;-0.30;99.90;;;;;;5014869;28;20224;-79
2023/03/09 07:36:22;;;;;;;29.03;13.87;;;-0.30;99.90;;;;;;5014618;28;20200;-79
2023/03/09 07:38:50;;;;;;;30.33;14.03;;;-0.20;99.90;;;;;;5014170;28;20227;-79
2023/03/09 07:41:17;;;;;;;30.37;13.23;;;-0.20;99.90;;;;;;5014793;28;20492;-79
2023/03/09 07:43:44;;;;;;;29.93;12.70;;;-0.10;99.90;;;;;;5013918;28;20196;-79
2023/03/09 07:46:12;;;;;;;28.70;15.43;;;-0.20;99.90;;;;;;5014315;28;20212;-79
2023/03/09 07:48:39;;;;;;;31.00;14.57;;;-0.10;99.90;;;;;;5013979;28;20238;-79
2023/03/09 07:51:07;;;;;;;32.03;13.97;;;-0.10;99.90;;;;;;5012157;28;20200;-79
2023/03/09 07:53:35;;;;;;;28.43;13.17;;;0.00;99.90;;;;;;5013024;28;20220;-79
2023/03/09 07:56:04;;;;;;;28.33;12.53;;;0.00;99.90;;;;;;5012249;28;20212;-79
2023/03/09 07:58:32;;;;;;;29.53;13.37;;;0.00;99.90;;;;;;5020145;28;20227;-79
2023/03/09 08:00:58;;;;;;;26.97;12.50;;;0.00;99.90;;;;;;5016097;28;20200;-80
2023/03/09 08:03:26;;;;;;;27.20;12.50;;;0.10;99.90;;;;;;5030806;28;20218;-80
2023/03/09 08:05:55;;;;;;;28.30;13.13;;;0.10;99.90;;;;;;5033201;28;20219;-79
2023/03/09 08:08:22;;;;;;;26.73;12.90;;;0.10;99.90;;;;;;5024152;28;20231;-79
2023/03/09 08:10:49;;;;;;;26.27;12.80;;;0.20;99.90;;;;;;5011728;28;20207;-79
2023/03/09 08:13:17;;;;;;;27.83;14.07;;;0.20;99.90;;;;;;5012117;28;20222;-79
2023/03/09 08:16:12;;;;;;;27.87;12.97;;;0.30;99.90;;;;;;5015885;28;20204;-79
2023/03/09 08:18:39;;;;;;;26.23;12.80;;;0.30;99.90;;;;;;5010593;28;20619;-79
2023/03/09 08:21:08;;;;;;;27.57;12.67;;;0.40;99.90;;;;;;5013357;28;20210;-79
2023/03/09 08:23:37;;;;;;;27.37;13.73;;;0.40;99.90;;;;;;5013658;28;20565;-80
2023/03/09 08:26:04;;;;;;;28.40;14.50;;;0.40;99.90;;;;;;5013577;28;20208;-79
2023/03/09 08:28:32;;;;;;;26.87;12.23;;;0.40;99.90;;;;;;5012926;28;20242;-79
2023/03/09 08:30:59;;;;;;;27.30;12.83;;;0.40;99.90;;;;;;5013707;28;20319;-80
2023/03/09 08:33:26;;;;;;;27.10;12.37;;;0.50;99.90;;;;;;5013624;28;20221;-80
2023/03/09 08:35:53;;;;;;;26.83;13.07;;;0.40;99.90;;;;;;5013671;28;20200;-80
2023/03/09 08:38:20;;;;;;;26.37;12.40;;;0.50;99.90;;;;;;5013356;28;20220;-80
2023/03/09 08:40:47;;;;;;;29.23;13.67;;;0.60;99.90;;;;;;5014205;28;20208;-80
2023/03/09 08:43:14;;;;;;;26.53;13.17;;;0.60;99.90;;;;;;5013555;28;20211;-79
2023/03/09 08:45:42;;;;;;;25.30;12.60;;;0.60;99.90;;;;;;5013069;28;20208;-79
2023/03/09 08:48:09;;;;;;;25.30;12.70;;;0.60;99.90;;;;;;5013109;28;20212;-79
2023/03/09 08:50:36;;;;;;;24.00;10.83;;;0.60;99.90;;;;;;5013524;28;20208;-79
2023/03/09 08:53:03;;;;;;;25.97;11.77;;;0.60;99.90;;;;;;5013115;28;20200;-79
2023/03/09 08:55:29;;;;;;;24.30;11.20;;;0.70;99.90;;;;;;5013691;28;20234;-79
2023/03/09 08:57:58;;;;;;;23.60;11.00;;;0.70;99.90;;;;;;5013526;28;20232;-80
2023/03/09 09:00:25;;;;;;;26.00;11.87;;;0.70;99.90;;;;;;5014314;28;20665;-79
2023/03/09 09:02:53;;;;;;;23.77;11.20;;;0.80;99.90;;;;;;5015435;28;20589;-80
2023/03/09 09:05:20;;;;;;;23.60;11.77;;;0.80;99.90;;;;;;5016309;28;20220;-79
2023/03/09 09:07:47;;;;;;;24.33;12.97;;;0.80;99.90;;;;;;5015954;28;20709;-79
2023/03/09 09:10:14;;;;;;;24.37;12.10;;;0.80;99.90;;;;;;5016472;28;20576;-79
2023/03/09 09:12:40;;;;;;;22.23;10.13;;;0.80;99.90;;;;;;5014653;28;20208;-80
2023/03/09 09:15:09;;;;;;;22.60;10.80;;;0.80;99.90;;;;;;5016563;28;20311;-79
2023/03/09 09:17:36;;;;;;;22.60;10.77;;;0.90;99.90;;;;;;5015837;28;20581;-79
2023/03/09 09:20:06;;;;;;;24.93;13.30;;;0.90;99.90;;;;;;5017328;28;20281;-80
2023/03/09 09:22:33;;;;;;;22.77;11.03;;;0.90;99.90;;;;;;5018989;28;20204;-79
2023/03/09 09:25:00;;;;;;;23.90;11.23;;;0.90;99.90;;;;;;5020109;28;20200;-79
2023/03/09 09:27:27;;;;;;;25.50;11.40;;;0.90;99.90;;;;;;5018362;28;20200;-79
2023/03/09 09:29:54;;;;;;;24.37;11.37;;;0.90;99.90;;;;;;5020528;28;20212;-79
2023/03/09 09:32:21;;;;;;;25.03;10.90;;;1.00;99.90;;;;;;5018134;28;20656;-79
2023/03/09 09:34:48;;;;;;;25.20;11.70;;;1.00;99.90;;;;;;5016659;28;20231;-80
2023/03/09 09:37:16;;;;;;;24.53;12.20;;;1.10;99.90;;;;;;5016896;28;20204;-79
2023/03/09 09:39:44;;;;;;;25.23;11.63;;;1.10;99.90;;;;;;5016392;28;20227;-79
2023/03/09 09:42:20;;;;;;;22.67;11.17;;;1.20;99.90;;;;;;5016408;28;20236;-80
2023/03/09 09:44:50;;;;;;;26.50;12.13;;;1.20;99.90;;;;;;5016445;28;20207;-79
2023/03/09 09:47:21;;;;;;;24.77;11.63;;;1.20;99.90;;;;;;5016115;28;20209;-79
2023/03/09 09:49:50;;;;;;;25.63;12.60;;;1.30;99.90;;;;;;5015718;28;20568;-80
2023/03/09 09:52:39;;;;;;;24.80;11.23;;;1.30;99.90;;;;;;5016049;28;20657;-80
2023/03/09 09:55:18;;;;;;;24.00;12.30;;;1.40;99.90;;;;;;5015939;28;20591;-80
2023/03/09 09:57:49;;;;;;;26.63;11.90;;;1.30;99.90;;;;;;5015470;28;20224;-80
2023/03/09 10:00:20;;;;;;;23.03;13.33;;;1.30;99.90;;;;;;5015424;28;20204;-79
2023/03/09 10:02:59;;;;;;;24.67;11.57;;;1.30;99.90;;;;;;5015730;28;20223;-79
2023/03/09 10:05:31;;;;;;;23.77;11.50;;;1.30;99.90;;;;;;5015778;28;20656;-80
2023/03/09 10:08:05;;;;;;;26.10;11.97;;;1.40;99.90;;;;;;5015806;28;20592;-80
2023/03/09 10:10:33;;;;;;;26.40;11.50;;;1.50;99.90;;;;;;5015360;28;20707;-80
2023/03/09 10:13:05;;;;;;;25.93;12.63;;;1.60;99.90;;;;;;5015367;28;20208;-79
2023/03/09 10:15:34;;;;;;;25.10;11.43;;;1.60;99.90;;;;;;5015267;28;20220;-80
2023/03/09 10:18:06;;;;;;;23.73;11.57;;;1.50;99.90;;;;;;5014785;28;20226;-80
2023/03/09 10:20:37;;;;;;;24.00;12.10;;;1.60;99.90;;;;;;5015518;28;20208;-80
2023/03/09 10:23:18;;;;;;;25.07;11.73;;;1.70;99.90;;;;;;5015061;28;20204;-80
2023/03/09 10:25:45;;;;;;;23.63;11.37;;;1.70;99.90;;;;;;5014887;28;20208;-79
2023/03/09 10:28:17;;;;;;;23.73;11.17;;;1.70;99.90;;;;;;5015012;28;20227;-79
2023/03/09 10:30:50;;;;;;;26.40;11.97;;;1.70;99.90;;;;;;5014951;28;20210;-79
2023/03/09 10:33:19;;;;;;;27.00;12.83;;;1.70;99.90;;;;;;5015606;28;20540;-79
2023/03/09 10:35:56;;;;;;;26.40;11.80;;;1.70;99.90;;;;;;5014881;28;20220;-79
2023/03/09 10:38:24;;;;;;;24.77;12.40;;;1.60;99.90;;;;;;5014706;28;20228;-79
2023/03/09 10:40:53;;;;;;;24.87;12.10;;;1.60;99.90;;;;;;5015012;28;20231;-79
2023/03/09 10:43:25;;;;;;;24.83;11.43;;;1.70;99.90;;;;;;5015135;28;20223;-80
2023/03/09 10:45:53;;;;;;;25.23;11.63;;;1.70;99.90;;;;;;5015194;28;20205;-80
2023/03/09 10:48:21;;;;;;;24.80;11.97;;;1.80;99.90;;;;;;5013880;28;20265;-80
2023/03/09 10:50:59;;;;;;;26.60;11.73;;;1.80;99.90;;;;;;5014703;28;20235;-80
2023/03/09 10:53:34;;;;;;;25.73;12.30;;;1.80;99.90;;;;;;5014406;28;20207;-79
2023/03/09 10:56:07;;;;;;;25.27;11.60;;;1.80;99.90;;;;;;5014282;28;20233;-80
2023/03/09 10:58:35;;;;;;;26.60;12.00;;;1.90;99.90;;;;;;5013940;28;20628;-81
2023/03/09 11:01:04;;;;;;;26.63;13.23;;;1.90;99.90;;;;;;5014359;28;20207;-80
2023/03/09 11:03:34;;;;;;;28.03;12.60;;;1.90;99.90;;;;;;5014313;28;20664;-80
2023/03/09 11:06:32;;;;;;;27.43;12.77;;;1.90;99.90;;;;;;5014585;28;20196;-80
2023/03/09 11:09:07;;;;;;;27.43;12.40;;;1.90;99.90;;;;;;5013983;28;20232;-80
2023/03/09 11:11:36;;;;;;;28.13;12.40;;;1.80;99.90;;;;;;5014252;28;20660;-80
2023/03/09 11:14:03;;;;;;;26.30;12.87;;;2.00;99.90;;;;;;5013757;28;20215;-79
2023/03/09 11:16:34;;;;;;;28.20;16.17;;;2.00;99.90;;;;;;5014262;28;20204;-81
2023/03/09 11:19:13;;;;;;;27.50;12.90;;;2.00;99.90;;;;;;5013641;28;20224;-81
2023/03/09 11:21:44;;;;;;;27.20;12.33;;;2.10;99.90;;;;;;5013534;28;20616;-81
2023/03/09 11:24:15;;;;;;;25.07;11.80;;;2.10;99.90;;;;;;5013515;28;20205;-80
2023/03/09 11:26:45;;;;;;;26.90;12.70;;;2.00;99.90;;;;;;5013872;28;20208;-81
2023/03/09 11:29:21;;;;;;;27.70;13.07;;;1.90;99.90;;;;;;5013173;28;20236;-80
2023/03/09 11:31:48;;;;;;;25.20;12.63;;;2.00;99.90;;;;;;5013795;28;20663;-80
2023/03/09 11:34:26;;;;;;;28.07;12.70;;;2.00;99.90;;;;;;5013350;28;20208;-80
2023/03/09 11:36:56;;;;;;;26.27;13.87;;;2.00;99.90;;;;;;5013794;28;20262;-80
2023/03/09 11:39:31;;;;;;;24.77;12.73;;;2.00;99.90;;;;;;5013235;28;20220;-80
2023/03/09 11:41:59;;;;;;;24.47;11.73;;;2.00;99.90;;;;;;5010630;28;20206;-80
2023/03/09 11:44:32;;;;;;;27.90;13.93;;;2.00;99.90;;;;;;5009190;28;20573;-80
2023/03/09 11:47:04;;;;;;;25.97;12.47;;;2.00;99.90;;;;;;5008892;28;20683;-80
2023/03/09 11:49:32;;;;;;;25.00;12.43;;;2.10;99.90;;;;;;5001855;28;20228;-81
2023/03/09 11:52:00;;;;;;;27.03;12.10;;;2.10;99.90;;;;;;5005877;28;20208;-80
2023/03/09 11:54:34;;;;;;;29.63;12.83;;;2.10;99.90;;;;;;5001239;28;20212;-80
2023/03/09 11:57:05;;;;;;;27.40;13.70;;;2.20;99.90;;;;;;5012658;28;20199;-79
2023/03/09 11:59:37;;;;;;;27.10;12.53;;;2.30;99.90;;;;;;5012966;28;20225;-80
2023/03/09 12:02:15;;;;;;;26.13;12.53;;;2.10;99.90;;;;;;5012813;28;20607;-80
2023/03/09 12:04:42;;;;;;;26.20;11.83;;;2.20;99.90;;;;;;5013147;28;20568;-80
2023/03/09 12:07:16;;;;;;;29.77;13.50;;;2.10;99.90;;;;;;5011767;28;20208;-80
2023/03/09 12:09:55;;;;;;;27.77;14.07;;;2.20;99.90;;;;;;5012690;28;20206;-80
2023/03/09 12:12:28;;;;;;;28.07;12.67;;;2.30;99.90;;;;;;5011617;28;20200;-80
2023/03/09 12:14:59;;;;;;;23.43;13.30;;;2.30;99.90;;;;;;5011393;28;20212;-80
2023/03/09 12:17:31;;;;;;;26.53;13.90;;;2.20;99.90;;;;;;5010348;28;20567;-79
2023/03/09 12:19:59;;;;;;;26.23;12.90;;;2.30;99.90;;;;;;5014961;28;20208;-80
2023/03/09 12:22:31;;;;;;;26.10;12.83;;;2.40;99.90;;;;;;5015227;28;20212;-80
2023/03/09 12:25:01;;;;;;;26.57;13.93;;;2.40;99.90;;;;;;5016606;28;20295;-80
2023/03/09 12:27:29;;;;;;;27.43;12.50;;;2.40;99.90;;;;;;5012923;28;20211;-80
2023/03/09 12:30:09;;;;;;;29.07;14.77;;;2.50;99.90;;;;;;5012381;28;20212;-80
2023/03/09 12:32:42;;;;;;;27.13;12.90;;;2.50;99.90;;;;;;5006615;28;20678;-81
2023/03/09 12:35:29;;;;;;;24.60;12.80;;;2.50;99.90;;;;;;5012661;28;20246;-80
2023/03/09 12:38:04;;;;;;;25.97;12.53;;;2.60;99.90;;;;;;4999936;28;20224;-80
2023/03/09 12:40:35;;;;;;;23.47;12.40;;;2.60;99.90;;;;;;5011654;28;20207;-80